sensor_id;sensor_type;location;lat;lon;timestamp;P1;durP1;ratioP1;P2;durP2;ratioP2
43690;SDS011;29293;52.190;21.226;2022-08-19T00:10:47;17.80;;;14.80;;
43690;SDS011;29293;52.190;21.226;2022-08-19T00:25:53;21.30;;;15.70;;
43690;SDS011;29293;52.190;21.226;2022-08-19T00:40:59;19.30;;;15.10;;
43690;SDS011;29293;52.190;21.226;2022-08-19T00:56:06;20.70;;;15.30;;
43690;SDS011;29293;52.190;21.226;2022-08-19T01:11:12;18.00;;;15.20;;
43690;SDS011;29293;52.190;21.226;2022-08-19T01:26:19;20.00;;;15.80;;
43690;SDS011;29293;52.190;21.226;2022-08-19T01:41:27;19.20;;;15.70;;
43690;SDS011;29293;52.190;21.226;2022-08-19T01:56:33;23.60;;;16.20;;
43690;SDS011;29293;52.190;21.226;2022-08-19T02:11:39;17.90;;;15.10;;
43690;SDS011;29293;52.190;21.226;2022-08-19T02:26:46;22.30;;;15.70;;
43690;SDS011;29293;52.190;21.226;2022-08-19T02:41:52;20.40;;;15.20;;
43690;SDS011;29293;52.190;21.226;2022-08-19T02:56:58;21.70;;;16.00;;
43690;SDS011;29293;52.190;21.226;2022-08-19T03:12:04;22.60;;;16.40;;
43690;SDS011;29293;52.190;21.226;2022-08-19T03:27:11;17.70;;;15.80;;
43690;SDS011;29293;52.190;21.226;2022-08-19T03:42:17;20.80;;;16.10;;
43690;SDS011;29293;52.190;21.226;2022-08-19T03:57:22;20.80;;;16.20;;
43690;SDS011;29293;52.190;21.226;2022-08-19T04:12:28;18.00;;;15.90;;
43690;SDS011;29293;52.190;21.226;2022-08-19T04:27:34;20.80;;;15.80;;
43690;SDS011;29293;52.190;21.226;2022-08-19T04:42:40;21.80;;;14.90;;
43690;SDS011;29293;52.190;21.226;2022-08-19T04:57:46;20.50;;;14.80;;
43690;SDS011;29293;52.190;21.226;2022-08-19T05:12:53;18.40;;;13.80;;
43690;SDS011;29293;52.190;21.226;2022-08-19T05:28:00;20.50;;;13.60;;
43690;SDS011;29293;52.190;21.226;2022-08-19T05:43:06;16.70;;;13.00;;
43690;SDS011;29293;52.190;21.226;2022-08-19T05:58:12;15.60;;;12.10;;
43690;SDS011;29293;52.190;21.226;2022-08-19T06:13:18;14.70;;;11.70;;
43690;SDS011;29293;52.190;21.226;2022-08-19T06:28:25;14.90;;;11.20;;
43690;SDS011;29293;52.190;21.226;2022-08-19T06:43:31;16.90;;;12.10;;
43690;SDS011;29293;52.190;21.226;2022-08-19T06:58:38;14.20;;;11.10;;
43690;SDS011;29293;52.190;21.226;2022-08-19T07:13:44;14.40;;;11.50;;
43690;SDS011;29293;52.190;21.226;2022-08-19T07:28:51;18.00;;;11.50;;
43690;SDS011;29293;52.190;21.226;2022-08-19T07:43:58;14.00;;;10.20;;
43690;SDS011;29293;52.190;21.226;2022-08-19T07:59:07;17.80;;;10.80;;
43690;SDS011;29293;52.190;21.226;2022-08-19T08:14:16;13.60;;;10.00;;
43690;SDS011;29293;52.190;21.226;2022-08-19T08:29:24;14.10;;;9.50;;
43690;SDS011;29293;52.190;21.226;2022-08-19T08:44:31;14.50;;;9.90;;
43690;SDS011;29293;52.190;21.226;2022-08-19T08:59:48;12.20;;;9.20;;
43690;SDS011;29293;52.190;21.226;2022-08-19T09:14:57;10.70;;;8.90;;
43690;SDS011;29293;52.190;21.226;2022-08-19T09:30:08;15.50;;;9.00;;
43690;SDS011;29293;52.190;21.226;2022-08-19T09:45:18;12.00;;;8.00;;
43690;SDS011;29293;52.190;21.226;2022-08-19T10:00:25;11.40;;;7.70;;
43690;SDS011;29293;52.190;21.226;2022-08-19T10:15:31;10.60;;;7.40;;
43690;SDS011;29293;52.190;21.226;2022-08-19T10:30:38;10.40;;;7.40;;
43690;SDS011;29293;52.190;21.226;2022-08-19T10:45:48;14.20;;;7.00;;
43690;SDS011;29293;52.190;21.226;2022-08-19T11:00:59;11.10;;;7.00;;
43690;SDS011;29293;52.190;21.226;2022-08-19T11:16:05;10.00;;;6.00;;
43690;SDS011;29293;52.190;21.226;2022-08-19T11:31:13;10.90;;;6.50;;
43690;SDS011;29293;52.190;21.226;2022-08-19T11:46:22;10.40;;;6.00;;
43690;SDS011;29293;52.190;21.226;2022-08-19T12:01:31;13.40;;;6.50;;
43690;SDS011;29293;52.190;21.226;2022-08-19T12:16:38;10.70;;;6.10;;
43690;SDS011;29293;52.190;21.226;2022-08-19T12:31:44;9.70;;;5.80;;
43690;SDS011;29293;52.190;21.226;2022-08-19T12:46:50;8.30;;;5.00;;
43690;SDS011;29293;52.190;21.226;2022-08-19T13:01:56;9.00;;;5.30;;
43690;SDS011;29293;52.190;21.226;2022-08-19T13:17:02;11.70;;;5.90;;
43690;SDS011;29293;52.190;21.226;2022-08-19T13:32:08;9.10;;;5.10;;
43690;SDS011;29293;52.190;21.226;2022-08-19T13:47:31;10.80;;;5.60;;
43690;SDS011;29293;52.190;21.226;2022-08-19T14:02:38;10.80;;;5.40;;
43690;SDS011;29293;52.190;21.226;2022-08-19T14:17:45;10.40;;;5.20;;
43690;SDS011;29293;52.190;21.226;2022-08-19T14:32:51;8.10;;;5.10;;
43690;SDS011;29293;52.190;21.226;2022-08-19T14:47:57;10.10;;;5.20;;
43690;SDS011;29293;52.190;21.226;2022-08-19T15:03:03;12.20;;;5.30;;
43690;SDS011;29293;52.190;21.226;2022-08-19T15:18:09;12.60;;;5.40;;
43690;SDS011;29293;52.190;21.226;2022-08-19T15:33:15;9.20;;;5.10;;
43690;SDS011;29293;52.190;21.226;2022-08-19T15:48:22;9.20;;;5.20;;
43690;SDS011;29293;52.190;21.226;2022-08-19T16:03:28;8.30;;;5.50;;
43690;SDS011;29293;52.190;21.226;2022-08-19T16:18:52;10.30;;;4.90;;
43690;SDS011;29293;52.190;21.226;2022-08-19T16:33:58;8.40;;;5.20;;
43690;SDS011;29293;52.190;21.226;2022-08-19T16:49:04;14.60;;;5.00;;
43690;SDS011;29293;52.190;21.226;2022-08-19T17:04:10;8.80;;;4.50;;
43690;SDS011;29293;52.190;21.226;2022-08-19T17:19:17;11.70;;;4.80;;
43690;SDS011;29293;52.190;21.226;2022-08-19T17:34:23;8.70;;;5.30;;
43690;SDS011;29293;52.190;21.226;2022-08-19T17:49:31;9.80;;;5.00;;
43690;SDS011;29293;52.190;21.226;2022-08-19T18:04:39;9.60;;;4.90;;
43690;SDS011;29293;52.190;21.226;2022-08-19T18:19:45;11.00;;;5.70;;
43690;SDS011;29293;52.190;21.226;2022-08-19T18:34:52;10.10;;;5.00;;
43690;SDS011;29293;52.190;21.226;2022-08-19T18:49:59;9.80;;;5.30;;
43690;SDS011;29293;52.190;21.226;2022-08-19T19:05:10;8.70;;;5.60;;
43690;SDS011;29293;52.190;21.226;2022-08-19T19:20:17;9.70;;;5.50;;
43690;SDS011;29293;52.190;21.226;2022-08-19T19:35:23;9.10;;;5.00;;
43690;SDS011;29293;52.190;21.226;2022-08-19T19:50:29;10.50;;;4.70;;
43690;SDS011;29293;52.190;21.226;2022-08-19T20:05:35;11.20;;;4.90;;
43690;SDS011;29293;52.190;21.226;2022-08-19T20:20:42;13.30;;;5.10;;
43690;SDS011;29293;52.190;21.226;2022-08-19T20:51:28;13.30;;;5.30;;
43690;SDS011;29293;52.190;21.226;2022-08-19T21:06:35;13.00;;;5.30;;
43690;SDS011;29293;52.190;21.226;2022-08-19T21:35:45;10.40;;;5.10;;
43690;SDS011;29293;52.190;21.226;2022-08-19T21:50:51;10.80;;;5.40;;
43690;SDS011;29293;52.190;21.226;2022-08-19T22:18:38;10.90;;;5.30;;
43690;SDS011;29293;52.190;21.226;2022-08-19T22:33:46;14.80;;;5.30;;
43690;SDS011;29293;52.190;21.226;2022-08-19T22:48:53;13.60;;;5.80;;
43690;SDS011;29293;52.190;21.226;2022-08-19T23:03:59;8.90;;;5.90;;
43690;SDS011;29293;52.190;21.226;2022-08-19T23:19:07;11.50;;;5.50;;
43690;SDS011;29293;52.190;21.226;2022-08-19T23:34:13;10.40;;;5.30;;
43690;SDS011;29293;52.190;21.226;2022-08-19T23:49:19;9.60;;;5.90;;
